sensor_id;sensor_type;location;lat;lon;timestamp;P1;durP1;ratioP1;P2;durP2;ratioP2
76729;SDS011;65653;53.106;18.046;2022-12-07T00:01:42;50.80;;;14.30;;
76729;SDS011;65653;53.106;18.046;2022-12-07T00:04:10;38.10;;;10.20;;
76729;SDS011;65653;53.106;18.046;2022-12-07T00:06:40;30.30;;;9.10;;
76729;SDS011;65653;53.106;18.046;2022-12-07T00:09:10;40.10;;;9.10;;
76729;SDS011;65653;53.106;18.046;2022-12-07T00:11:39;49.00;;;15.40;;
76729;SDS011;65653;53.106;18.046;2022-12-07T00:14:06;28.20;;;7.60;;
76729;SDS011;65653;53.106;18.046;2022-12-07T00:16:35;51.30;;;14.20;;
76729;SDS011;65653;53.106;18.046;2022-12-07T00:19:02;41.50;;;11.60;;
76729;SDS011;65653;53.106;18.046;2022-12-07T00:21:31;37.50;;;8.50;;
76729;SDS011;65653;53.106;18.046;2022-12-07T00:23:59;43.30;;;12.70;;
76729;SDS011;65653;53.106;18.046;2022-12-07T00:26:27;52.90;;;15.90;;
76729;SDS011;65653;53.106;18.046;2022-12-07T00:29:06;51.70;;;13.40;;
76729;SDS011;65653;53.106;18.046;2022-12-07T00:31:44;49.00;;;16.60;;
76729;SDS011;65653;53.106;18.046;2022-12-07T00:34:12;37.10;;;10.30;;
76729;SDS011;65653;53.106;18.046;2022-12-07T00:36:43;50.10;;;13.80;;
76729;SDS011;65653;53.106;18.046;2022-12-07T00:39:10;40.60;;;10.50;;
76729;SDS011;65653;53.106;18.046;2022-12-07T00:41:37;31.70;;;8.00;;
76729;SDS011;65653;53.106;18.046;2022-12-07T00:44:03;32.40;;;8.10;;
76729;SDS011;65653;53.106;18.046;2022-12-07T00:46:30;35.60;;;8.60;;
76729;SDS011;65653;53.106;18.046;2022-12-07T00:48:56;45.50;;;15.20;;
76729;SDS011;65653;53.106;18.046;2022-12-07T00:51:23;45.80;;;13.60;;
76729;SDS011;65653;53.106;18.046;2022-12-07T00:53:51;54.50;;;13.10;;
76729;SDS011;65653;53.106;18.046;2022-12-07T00:56:19;55.80;;;14.50;;
76729;SDS011;65653;53.106;18.046;2022-12-07T00:59:21;33.60;;;10.80;;
76729;SDS011;65653;53.106;18.046;2022-12-07T01:01:41;55.60;;;14.90;;
76729;SDS011;65653;53.106;18.046;2022-12-07T01:04:07;49.00;;;11.80;;
76729;SDS011;65653;53.106;18.046;2022-12-07T01:06:34;57.50;;;16.00;;
76729;SDS011;65653;53.106;18.046;2022-12-07T01:09:01;49.80;;;13.50;;
76729;SDS011;65653;53.106;18.046;2022-12-07T01:11:30;45.30;;;12.90;;
76729;SDS011;65653;53.106;18.046;2022-12-07T01:13:57;55.50;;;16.30;;
76729;SDS011;65653;53.106;18.046;2022-12-07T01:16:26;45.10;;;11.90;;
76729;SDS011;65653;53.106;18.046;2022-12-07T01:18:54;35.50;;;14.70;;
76729;SDS011;65653;53.106;18.046;2022-12-07T01:21:23;42.80;;;9.90;;
76729;SDS011;65653;53.106;18.046;2022-12-07T01:24:02;29.20;;;8.70;;
76729;SDS011;65653;53.106;18.046;2022-12-07T01:26:30;33.20;;;10.90;;
76729;SDS011;65653;53.106;18.046;2022-12-07T01:28:57;36.60;;;10.80;;
76729;SDS011;65653;53.106;18.046;2022-12-07T01:31:25;31.40;;;11.70;;
76729;SDS011;65653;53.106;18.046;2022-12-07T01:33:54;37.30;;;12.30;;
76729;SDS011;65653;53.106;18.046;2022-12-07T01:36:24;31.40;;;10.50;;
76729;SDS011;65653;53.106;18.046;2022-12-07T01:38:53;38.00;;;11.50;;
76729;SDS011;65653;53.106;18.046;2022-12-07T01:41:23;22.40;;;8.00;;
76729;SDS011;65653;53.106;18.046;2022-12-07T01:46:36;21.00;;;7.30;;
76729;SDS011;65653;53.106;18.046;2022-12-07T01:49:04;30.40;;;9.50;;
76729;SDS011;65653;53.106;18.046;2022-12-07T01:51:35;19.00;;;7.10;;
76729;SDS011;65653;53.106;18.046;2022-12-07T01:54:05;18.50;;;8.00;;
76729;SDS011;65653;53.106;18.046;2022-12-07T01:56:32;15.90;;;4.20;;
76729;SDS011;65653;53.106;18.046;2022-12-07T01:58:59;16.40;;;4.00;;
76729;SDS011;65653;53.106;18.046;2022-12-07T02:01:26;16.70;;;4.90;;
76729;SDS011;65653;53.106;18.046;2022-12-07T02:03:54;18.80;;;6.70;;
76729;SDS011;65653;53.106;18.046;2022-12-07T02:06:21;18.30;;;6.50;;
76729;SDS011;65653;53.106;18.046;2022-12-07T02:08:50;14.60;;;4.30;;
76729;SDS011;65653;53.106;18.046;2022-12-07T02:11:17;17.10;;;5.10;;
76729;SDS011;65653;53.106;18.046;2022-12-07T02:13:45;13.60;;;3.50;;
76729;SDS011;65653;53.106;18.046;2022-12-07T02:22:10;17.40;;;5.00;;
76729;SDS011;65653;53.106;18.046;2022-12-07T02:28:01;33.10;;;10.60;;
76729;SDS011;65653;53.106;18.046;2022-12-07T02:30:49;36.10;;;10.60;;
76729;SDS011;65653;53.106;18.046;2022-12-07T02:33:19;28.40;;;7.30;;
76729;SDS011;65653;53.106;18.046;2022-12-07T02:35:55;29.30;;;7.50;;
76729;SDS011;65653;53.106;18.046;2022-12-07T02:38:31;24.40;;;6.60;;
76729;SDS011;65653;53.106;18.046;2022-12-07T02:41:11;50.70;;;12.10;;
76729;SDS011;65653;53.106;18.046;2022-12-07T02:43:54;18.20;;;4.20;;
76729;SDS011;65653;53.106;18.046;2022-12-07T02:46:25;28.50;;;5.10;;
76729;SDS011;65653;53.106;18.046;2022-12-07T02:48:56;41.50;;;9.90;;
76729;SDS011;65653;53.106;18.046;2022-12-07T02:51:25;57.90;;;14.60;;
76729;SDS011;65653;53.106;18.046;2022-12-07T02:53:52;36.20;;;9.30;;
76729;SDS011;65653;53.106;18.046;2022-12-07T02:56:38;40.50;;;8.00;;
76729;SDS011;65653;53.106;18.046;2022-12-07T03:07:21;59.70;;;15.80;;
76729;SDS011;65653;53.106;18.046;2022-12-07T03:15:58;61.50;;;15.50;;
76729;SDS011;65653;53.106;18.046;2022-12-07T03:18:32;56.50;;;12.40;;
76729;SDS011;65653;53.106;18.046;2022-12-07T03:21:05;64.70;;;16.70;;
76729;SDS011;65653;53.106;18.046;2022-12-07T03:23:37;75.80;;;18.50;;
76729;SDS011;65653;53.106;18.046;2022-12-07T03:26:06;60.10;;;14.30;;
76729;SDS011;65653;53.106;18.046;2022-12-07T03:28:38;58.60;;;13.10;;
76729;SDS011;65653;53.106;18.046;2022-12-07T03:31:15;53.40;;;11.80;;
76729;SDS011;65653;53.106;18.046;2022-12-07T03:36:21;46.10;;;11.90;;
76729;SDS011;65653;53.106;18.046;2022-12-07T03:39:36;35.40;;;9.30;;
76729;SDS011;65653;53.106;18.046;2022-12-07T03:41:59;28.50;;;7.00;;
76729;SDS011;65653;53.106;18.046;2022-12-07T03:44:29;48.80;;;13.40;;
76729;SDS011;65653;53.106;18.046;2022-12-07T03:50:03;32.20;;;7.60;;
76729;SDS011;65653;53.106;18.046;2022-12-07T03:57:43;64.40;;;15.20;;
76729;SDS011;65653;53.106;18.046;2022-12-07T04:00:13;39.30;;;8.80;;
76729;SDS011;65653;53.106;18.046;2022-12-07T04:02:40;36.10;;;9.00;;
76729;SDS011;65653;53.106;18.046;2022-12-07T04:05:09;42.50;;;9.60;;
76729;SDS011;65653;53.106;18.046;2022-12-07T04:07:36;48.30;;;9.60;;
76729;SDS011;65653;53.106;18.046;2022-12-07T04:10:03;39.60;;;7.60;;
76729;SDS011;65653;53.106;18.046;2022-12-07T04:12:31;45.80;;;13.10;;
76729;SDS011;65653;53.106;18.046;2022-12-07T04:14:57;39.30;;;7.10;;
76729;SDS011;65653;53.106;18.046;2022-12-07T04:17:23;37.70;;;12.20;;
76729;SDS011;65653;53.106;18.046;2022-12-07T04:19:50;44.00;;;11.10;;
76729;SDS011;65653;53.106;18.046;2022-12-07T04:22:17;30.50;;;9.10;;
76729;SDS011;65653;53.106;18.046;2022-12-07T04:24:43;36.60;;;8.70;;
76729;SDS011;65653;53.106;18.046;2022-12-07T04:27:10;36.30;;;10.00;;
76729;SDS011;65653;53.106;18.046;2022-12-07T04:29:36;33.00;;;9.40;;
76729;SDS011;65653;53.106;18.046;2022-12-07T04:32:02;35.50;;;7.60;;
76729;SDS011;65653;53.106;18.046;2022-12-07T04:34:29;32.00;;;8.50;;
76729;SDS011;65653;53.106;18.046;2022-12-07T04:36:56;47.40;;;10.70;;
76729;SDS011;65653;53.106;18.046;2022-12-07T04:39:29;31.90;;;9.00;;
76729;SDS011;65653;53.106;18.046;2022-12-07T04:41:57;28.60;;;7.40;;
76729;SDS011;65653;53.106;18.046;2022-12-07T04:44:24;25.10;;;5.50;;
76729;SDS011;65653;53.106;18.046;2022-12-07T04:46:52;25.00;;;7.00;;
76729;SDS011;65653;53.106;18.046;2022-12-07T04:49:20;30.10;;;9.30;;
76729;SDS011;65653;53.106;18.046;2022-12-07T04:51:47;20.60;;;5.90;;
76729;SDS011;65653;53.106;18.046;2022-12-07T04:54:14;37.60;;;9.70;;
76729;SDS011;65653;53.106;18.046;2022-12-07T04:56:42;36.70;;;9.40;;
76729;SDS011;65653;53.106;18.046;2022-12-07T04:59:09;35.80;;;9.90;;
76729;SDS011;65653;53.106;18.046;2022-12-07T05:01:37;46.20;;;12.20;;
76729;SDS011;65653;53.106;18.046;2022-12-07T05:04:04;51.50;;;10.90;;
76729;SDS011;65653;53.106;18.046;2022-12-07T05:06:30;36.40;;;10.40;;
76729;SDS011;65653;53.106;18.046;2022-12-07T05:08:57;29.90;;;7.60;;
76729;SDS011;65653;53.106;18.046;2022-12-07T05:11:24;18.60;;;5.30;;
76729;SDS011;65653;53.106;18.046;2022-12-07T05:14:07;35.40;;;9.40;;
76729;SDS011;65653;53.106;18.046;2022-12-07T05:16:36;29.00;;;9.90;;
76729;SDS011;65653;53.106;18.046;2022-12-07T05:19:04;40.50;;;11.40;;
76729;SDS011;65653;53.106;18.046;2022-12-07T05:21:31;17.40;;;4.80;;
76729;SDS011;65653;53.106;18.046;2022-12-07T05:23:58;27.00;;;7.40;;
76729;SDS011;65653;53.106;18.046;2022-12-07T05:26:24;12.50;;;4.80;;
76729;SDS011;65653;53.106;18.046;2022-12-07T05:28:53;31.90;;;7.80;;
76729;SDS011;65653;53.106;18.046;2022-12-07T05:31:21;20.50;;;5.80;;
76729;SDS011;65653;53.106;18.046;2022-12-07T05:33:47;17.50;;;4.50;;
76729;SDS011;65653;53.106;18.046;2022-12-07T05:36:14;23.20;;;5.30;;
76729;SDS011;65653;53.106;18.046;2022-12-07T05:38:41;11.20;;;3.30;;
76729;SDS011;65653;53.106;18.046;2022-12-07T05:41:08;36.20;;;10.40;;
76729;SDS011;65653;53.106;18.046;2022-12-07T05:43:57;21.10;;;5.00;;
76729;SDS011;65653;53.106;18.046;2022-12-07T05:46:24;40.10;;;11.40;;
76729;SDS011;65653;53.106;18.046;2022-12-07T05:48:51;54.50;;;13.20;;
76729;SDS011;65653;53.106;18.046;2022-12-07T05:51:18;51.30;;;15.00;;
76729;SDS011;65653;53.106;18.046;2022-12-07T05:53:45;47.10;;;12.70;;
76729;SDS011;65653;53.106;18.046;2022-12-07T05:56:11;50.30;;;12.20;;
76729;SDS011;65653;53.106;18.046;2022-12-07T05:58:38;64.60;;;15.50;;
76729;SDS011;65653;53.106;18.046;2022-12-07T06:01:23;60.80;;;13.80;;
76729;SDS011;65653;53.106;18.046;2022-12-07T06:03:50;56.10;;;15.00;;
76729;SDS011;65653;53.106;18.046;2022-12-07T06:06:16;50.30;;;12.40;;
76729;SDS011;65653;53.106;18.046;2022-12-07T06:08:42;65.40;;;14.90;;
76729;SDS011;65653;53.106;18.046;2022-12-07T06:11:09;68.40;;;15.60;;
76729;SDS011;65653;53.106;18.046;2022-12-07T06:13:54;63.10;;;13.60;;
76729;SDS011;65653;53.106;18.046;2022-12-07T06:16:20;56.20;;;13.80;;
76729;SDS011;65653;53.106;18.046;2022-12-07T06:18:47;60.20;;;15.50;;
76729;SDS011;65653;53.106;18.046;2022-12-07T06:21:13;61.20;;;16.30;;
76729;SDS011;65653;53.106;18.046;2022-12-07T06:23:40;73.20;;;14.40;;
76729;SDS011;65653;53.106;18.046;2022-12-07T06:26:07;64.90;;;14.60;;
76729;SDS011;65653;53.106;18.046;2022-12-07T06:28:34;91.30;;;19.70;;
76729;SDS011;65653;53.106;18.046;2022-12-07T06:31:01;74.00;;;16.90;;
76729;SDS011;65653;53.106;18.046;2022-12-07T06:33:29;80.00;;;17.80;;
76729;SDS011;65653;53.106;18.046;2022-12-07T06:35:55;72.60;;;21.40;;
76729;SDS011;65653;53.106;18.046;2022-12-07T06:38:22;79.20;;;19.20;;
76729;SDS011;65653;53.106;18.046;2022-12-07T06:40:48;83.50;;;19.50;;
76729;SDS011;65653;53.106;18.046;2022-12-07T06:43:15;80.80;;;20.00;;
76729;SDS011;65653;53.106;18.046;2022-12-07T06:45:41;98.70;;;20.50;;
76729;SDS011;65653;53.106;18.046;2022-12-07T06:48:08;76.60;;;19.80;;
76729;SDS011;65653;53.106;18.046;2022-12-07T06:50:35;78.90;;;14.60;;
76729;SDS011;65653;53.106;18.046;2022-12-07T06:53:01;83.30;;;21.70;;
76729;SDS011;65653;53.106;18.046;2022-12-07T06:55:28;73.10;;;17.20;;
76729;SDS011;65653;53.106;18.046;2022-12-07T06:57:55;92.40;;;20.60;;
76729;SDS011;65653;53.106;18.046;2022-12-07T07:00:22;65.30;;;13.80;;
76729;SDS011;65653;53.106;18.046;2022-12-07T07:02:48;76.20;;;16.70;;
76729;SDS011;65653;53.106;18.046;2022-12-07T07:05:14;93.60;;;20.60;;
76729;SDS011;65653;53.106;18.046;2022-12-07T07:07:42;92.90;;;23.60;;
76729;SDS011;65653;53.106;18.046;2022-12-07T07:10:09;87.60;;;23.60;;
76729;SDS011;65653;53.106;18.046;2022-12-07T07:12:36;91.80;;;18.20;;
76729;SDS011;65653;53.106;18.046;2022-12-07T07:15:02;55.00;;;13.50;;
76729;SDS011;65653;53.106;18.046;2022-12-07T07:17:29;51.80;;;13.80;;
76729;SDS011;65653;53.106;18.046;2022-12-07T07:19:55;67.70;;;15.60;;
76729;SDS011;65653;53.106;18.046;2022-12-07T07:22:22;80.50;;;18.10;;
76729;SDS011;65653;53.106;18.046;2022-12-07T07:24:48;53.60;;;12.00;;
76729;SDS011;65653;53.106;18.046;2022-12-07T07:27:15;65.30;;;17.10;;
76729;SDS011;65653;53.106;18.046;2022-12-07T07:29:41;78.80;;;22.30;;
76729;SDS011;65653;53.106;18.046;2022-12-07T07:32:08;67.50;;;15.00;;
76729;SDS011;65653;53.106;18.046;2022-12-07T07:34:34;75.30;;;16.90;;
76729;SDS011;65653;53.106;18.046;2022-12-07T07:37:01;82.40;;;20.10;;
76729;SDS011;65653;53.106;18.046;2022-12-07T07:39:27;60.30;;;12.90;;
76729;SDS011;65653;53.106;18.046;2022-12-07T07:41:54;86.20;;;20.70;;
76729;SDS011;65653;53.106;18.046;2022-12-07T07:44:20;75.70;;;17.00;;
76729;SDS011;65653;53.106;18.046;2022-12-07T07:46:47;92.60;;;20.50;;
76729;SDS011;65653;53.106;18.046;2022-12-07T07:49:13;99.10;;;24.50;;
76729;SDS011;65653;53.106;18.046;2022-12-07T07:51:40;89.20;;;21.90;;
76729;SDS011;65653;53.106;18.046;2022-12-07T07:54:06;84.50;;;20.00;;
76729;SDS011;65653;53.106;18.046;2022-12-07T07:56:33;72.50;;;20.70;;
76729;SDS011;65653;53.106;18.046;2022-12-07T07:58:59;77.80;;;19.80;;
76729;SDS011;65653;53.106;18.046;2022-12-07T08:01:25;72.30;;;18.80;;
76729;SDS011;65653;53.106;18.046;2022-12-07T08:03:52;73.20;;;22.60;;
76729;SDS011;65653;53.106;18.046;2022-12-07T08:06:18;89.30;;;24.80;;
76729;SDS011;65653;53.106;18.046;2022-12-07T08:08:45;84.60;;;20.10;;
76729;SDS011;65653;53.106;18.046;2022-12-07T08:11:12;73.20;;;17.80;;
76729;SDS011;65653;53.106;18.046;2022-12-07T08:13:38;76.00;;;20.80;;
76729;SDS011;65653;53.106;18.046;2022-12-07T08:16:05;65.20;;;19.20;;
76729;SDS011;65653;53.106;18.046;2022-12-07T08:18:35;92.30;;;22.70;;
76729;SDS011;65653;53.106;18.046;2022-12-07T08:21:03;91.40;;;21.00;;
76729;SDS011;65653;53.106;18.046;2022-12-07T08:23:30;97.90;;;27.40;;
76729;SDS011;65653;53.106;18.046;2022-12-07T08:26:00;93.10;;;26.40;;
76729;SDS011;65653;53.106;18.046;2022-12-07T08:28:30;87.00;;;26.80;;
76729;SDS011;65653;53.106;18.046;2022-12-07T08:31:01;71.90;;;21.70;;
76729;SDS011;65653;53.106;18.046;2022-12-07T08:33:30;61.90;;;20.10;;
76729;SDS011;65653;53.106;18.046;2022-12-07T08:36:00;79.60;;;21.30;;
76729;SDS011;65653;53.106;18.046;2022-12-07T08:38:29;77.80;;;21.90;;
76729;SDS011;65653;53.106;18.046;2022-12-07T08:40:56;68.70;;;21.60;;
76729;SDS011;65653;53.106;18.046;2022-12-07T08:43:23;68.10;;;21.50;;
76729;SDS011;65653;53.106;18.046;2022-12-07T08:48:33;67.20;;;16.80;;
76729;SDS011;65653;53.106;18.046;2022-12-07T08:51:02;73.20;;;18.40;;
76729;SDS011;65653;53.106;18.046;2022-12-07T08:53:28;83.30;;;24.60;;
76729;SDS011;65653;53.106;18.046;2022-12-07T08:55:56;76.40;;;19.20;;
76729;SDS011;65653;53.106;18.046;2022-12-07T08:58:24;69.60;;;21.60;;
76729;SDS011;65653;53.106;18.046;2022-12-07T09:00:50;77.60;;;21.70;;
76729;SDS011;65653;53.106;18.046;2022-12-07T09:03:17;51.80;;;17.00;;
76729;SDS011;65653;53.106;18.046;2022-12-07T09:05:45;68.80;;;21.10;;
76729;SDS011;65653;53.106;18.046;2022-12-07T09:08:11;70.30;;;21.70;;
76729;SDS011;65653;53.106;18.046;2022-12-07T09:10:38;56.30;;;15.50;;
76729;SDS011;65653;53.106;18.046;2022-12-07T09:13:04;58.30;;;20.40;;
76729;SDS011;65653;53.106;18.046;2022-12-07T09:15:31;65.50;;;22.10;;
76729;SDS011;65653;53.106;18.046;2022-12-07T09:17:58;69.90;;;21.00;;
76729;SDS011;65653;53.106;18.046;2022-12-07T09:20:24;64.00;;;22.40;;
76729;SDS011;65653;53.106;18.046;2022-12-07T09:22:51;78.50;;;21.20;;
76729;SDS011;65653;53.106;18.046;2022-12-07T09:25:17;70.00;;;21.30;;
76729;SDS011;65653;53.106;18.046;2022-12-07T09:27:44;53.20;;;15.90;;
76729;SDS011;65653;53.106;18.046;2022-12-07T09:30:11;62.50;;;19.00;;
76729;SDS011;65653;53.106;18.046;2022-12-07T09:32:38;52.20;;;15.60;;
76729;SDS011;65653;53.106;18.046;2022-12-07T09:35:04;57.90;;;19.10;;
76729;SDS011;65653;53.106;18.046;2022-12-07T09:37:31;73.60;;;22.90;;
76729;SDS011;65653;53.106;18.046;2022-12-07T09:40:01;66.90;;;21.20;;
76729;SDS011;65653;53.106;18.046;2022-12-07T09:42:31;65.40;;;21.70;;
76729;SDS011;65653;53.106;18.046;2022-12-07T09:45:02;61.40;;;22.90;;
76729;SDS011;65653;53.106;18.046;2022-12-07T09:47:31;68.40;;;20.90;;
76729;SDS011;65653;53.106;18.046;2022-12-07T09:50:03;76.30;;;22.00;;
76729;SDS011;65653;53.106;18.046;2022-12-07T09:52:38;55.40;;;22.90;;
76729;SDS011;65653;53.106;18.046;2022-12-07T09:55:13;68.40;;;19.80;;
76729;SDS011;65653;53.106;18.046;2022-12-07T09:57:43;66.50;;;23.50;;
76729;SDS011;65653;53.106;18.046;2022-12-07T10:00:17;72.20;;;24.20;;
76729;SDS011;65653;53.106;18.046;2022-12-07T10:02:55;64.90;;;19.80;;
76729;SDS011;65653;53.106;18.046;2022-12-07T10:07:58;76.10;;;25.70;;
76729;SDS011;65653;53.106;18.046;2022-12-07T10:10:26;78.90;;;22.90;;
76729;SDS011;65653;53.106;18.046;2022-12-07T10:12:57;67.20;;;23.90;;
76729;SDS011;65653;53.106;18.046;2022-12-07T10:18:41;62.50;;;23.00;;
76729;SDS011;65653;53.106;18.046;2022-12-07T10:21:11;63.90;;;22.00;;
76729;SDS011;65653;53.106;18.046;2022-12-07T10:24:03;70.40;;;23.30;;
76729;SDS011;65653;53.106;18.046;2022-12-07T10:26:34;57.30;;;20.30;;
76729;SDS011;65653;53.106;18.046;2022-12-07T10:29:14;73.90;;;20.30;;
76729;SDS011;65653;53.106;18.046;2022-12-07T10:31:50;76.30;;;23.20;;
76729;SDS011;65653;53.106;18.046;2022-12-07T10:34:38;61.70;;;17.90;;
76729;SDS011;65653;53.106;18.046;2022-12-07T10:37:16;63.20;;;16.90;;
76729;SDS011;65653;53.106;18.046;2022-12-07T10:42:23;56.00;;;19.30;;
76729;SDS011;65653;53.106;18.046;2022-12-07T10:48:08;76.20;;;18.90;;
76729;SDS011;65653;53.106;18.046;2022-12-07T10:53:44;66.50;;;20.40;;
76729;SDS011;65653;53.106;18.046;2022-12-07T11:01:57;64.30;;;17.70;;
76729;SDS011;65653;53.106;18.046;2022-12-07T11:04:54;49.70;;;17.60;;
76729;SDS011;65653;53.106;18.046;2022-12-07T11:07:49;65.90;;;19.90;;
76729;SDS011;65653;53.106;18.046;2022-12-07T11:10:26;73.00;;;21.40;;
76729;SDS011;65653;53.106;18.046;2022-12-07T11:13:04;49.80;;;19.80;;
76729;SDS011;65653;53.106;18.046;2022-12-07T11:15:45;52.10;;;17.00;;
76729;SDS011;65653;53.106;18.046;2022-12-07T11:21:56;73.30;;;22.10;;
76729;SDS011;65653;53.106;18.046;2022-12-07T11:24:32;69.00;;;21.60;;
76729;SDS011;65653;53.106;18.046;2022-12-07T11:27:32;79.00;;;24.30;;
76729;SDS011;65653;53.106;18.046;2022-12-07T11:30:17;60.80;;;23.20;;
76729;SDS011;65653;53.106;18.046;2022-12-07T11:32:50;55.20;;;17.60;;
76729;SDS011;65653;53.106;18.046;2022-12-07T11:38:13;49.40;;;18.90;;
76729;SDS011;65653;53.106;18.046;2022-12-07T11:43:27;58.00;;;19.60;;
76729;SDS011;65653;53.106;18.046;2022-12-07T11:46:03;55.30;;;20.70;;
76729;SDS011;65653;53.106;18.046;2022-12-07T11:48:36;56.50;;;17.50;;
76729;SDS011;65653;53.106;18.046;2022-12-07T11:51:09;46.50;;;18.20;;
76729;SDS011;65653;53.106;18.046;2022-12-07T11:56:14;62.10;;;19.80;;
76729;SDS011;65653;53.106;18.046;2022-12-07T12:03:58;62.40;;;19.70;;
76729;SDS011;65653;53.106;18.046;2022-12-07T12:06:31;59.30;;;16.30;;
76729;SDS011;65653;53.106;18.046;2022-12-07T12:14:30;77.30;;;24.30;;
76729;SDS011;65653;53.106;18.046;2022-12-07T12:22:43;65.40;;;19.80;;
76729;SDS011;65653;53.106;18.046;2022-12-07T12:25:23;55.50;;;17.00;;
76729;SDS011;65653;53.106;18.046;2022-12-07T12:27:54;54.10;;;17.10;;
76729;SDS011;65653;53.106;18.046;2022-12-07T12:33:05;83.50;;;25.60;;
76729;SDS011;65653;53.106;18.046;2022-12-07T12:35:39;89.20;;;21.60;;
76729;SDS011;65653;53.106;18.046;2022-12-07T12:41:00;78.90;;;22.00;;
76729;SDS011;65653;53.106;18.046;2022-12-07T12:48:57;79.60;;;23.90;;
76729;SDS011;65653;53.106;18.046;2022-12-07T12:51:52;69.50;;;22.00;;
76729;SDS011;65653;53.106;18.046;2022-12-07T12:54:21;68.50;;;21.30;;
76729;SDS011;65653;53.106;18.046;2022-12-07T12:56:59;59.30;;;19.80;;
76729;SDS011;65653;53.106;18.046;2022-12-07T13:02:24;64.10;;;23.90;;
76729;SDS011;65653;53.106;18.046;2022-12-07T13:05:14;75.70;;;23.20;;
76729;SDS011;65653;53.106;18.046;2022-12-07T13:13:03;70.30;;;24.30;;
76729;SDS011;65653;53.106;18.046;2022-12-07T13:15:46;67.10;;;19.80;;
76729;SDS011;65653;53.106;18.046;2022-12-07T13:26:18;74.00;;;21.50;;
76729;SDS011;65653;53.106;18.046;2022-12-07T13:28:51;49.60;;;13.80;;
76729;SDS011;65653;53.106;18.046;2022-12-07T13:31:32;47.60;;;13.40;;
76729;SDS011;65653;53.106;18.046;2022-12-07T13:34:02;74.40;;;19.10;;
76729;SDS011;65653;53.106;18.046;2022-12-07T13:36:34;77.30;;;17.30;;
76729;SDS011;65653;53.106;18.046;2022-12-07T13:39:11;74.20;;;20.30;;
76729;SDS011;65653;53.106;18.046;2022-12-07T13:41:44;51.20;;;11.90;;
76729;SDS011;65653;53.106;18.046;2022-12-07T13:44:16;68.20;;;17.80;;
76729;SDS011;65653;53.106;18.046;2022-12-07T13:47:20;71.70;;;18.80;;
76729;SDS011;65653;53.106;18.046;2022-12-07T13:49:56;84.30;;;23.10;;
76729;SDS011;65653;53.106;18.046;2022-12-07T13:52:24;54.80;;;18.00;;
76729;SDS011;65653;53.106;18.046;2022-12-07T13:54:57;70.30;;;21.60;;
76729;SDS011;65653;53.106;18.046;2022-12-07T13:57:39;55.00;;;15.20;;
76729;SDS011;65653;53.106;18.046;2022-12-07T14:00:16;60.90;;;17.00;;
76729;SDS011;65653;53.106;18.046;2022-12-07T14:03:20;59.50;;;17.50;;
76729;SDS011;65653;53.106;18.046;2022-12-07T14:09:05;73.90;;;21.30;;
76729;SDS011;65653;53.106;18.046;2022-12-07T14:11:42;66.40;;;22.50;;
76729;SDS011;65653;53.106;18.046;2022-12-07T14:14:11;76.20;;;25.30;;
76729;SDS011;65653;53.106;18.046;2022-12-07T14:16:42;58.30;;;19.40;;
76729;SDS011;65653;53.106;18.046;2022-12-07T14:19:37;50.50;;;13.00;;
76729;SDS011;65653;53.106;18.046;2022-12-07T14:22:08;54.00;;;12.80;;
76729;SDS011;65653;53.106;18.046;2022-12-07T14:24:45;63.80;;;19.40;;
76729;SDS011;65653;53.106;18.046;2022-12-07T14:27:21;47.00;;;14.80;;
76729;SDS011;65653;53.106;18.046;2022-12-07T14:29:51;53.90;;;15.00;;
76729;SDS011;65653;53.106;18.046;2022-12-07T14:32:20;51.30;;;17.40;;
76729;SDS011;65653;53.106;18.046;2022-12-07T14:34:55;33.70;;;11.70;;
76729;SDS011;65653;53.106;18.046;2022-12-07T14:37:23;57.50;;;18.80;;
76729;SDS011;65653;53.106;18.046;2022-12-07T14:39:50;51.00;;;17.00;;
76729;SDS011;65653;53.106;18.046;2022-12-07T14:42:16;52.00;;;16.60;;
76729;SDS011;65653;53.106;18.046;2022-12-07T14:44:43;35.50;;;10.70;;
76729;SDS011;65653;53.106;18.046;2022-12-07T14:47:10;47.90;;;14.80;;
76729;SDS011;65653;53.106;18.046;2022-12-07T14:49:37;43.10;;;12.40;;
76729;SDS011;65653;53.106;18.046;2022-12-07T14:52:04;45.60;;;12.10;;
76729;SDS011;65653;53.106;18.046;2022-12-07T14:54:37;40.10;;;12.80;;
76729;SDS011;65653;53.106;18.046;2022-12-07T14:57:03;43.80;;;12.90;;
76729;SDS011;65653;53.106;18.046;2022-12-07T14:59:29;28.30;;;8.60;;
76729;SDS011;65653;53.106;18.046;2022-12-07T15:01:56;57.30;;;18.60;;
76729;SDS011;65653;53.106;18.046;2022-12-07T15:04:23;53.50;;;17.30;;
76729;SDS011;65653;53.106;18.046;2022-12-07T15:06:56;34.60;;;11.10;;
76729;SDS011;65653;53.106;18.046;2022-12-07T15:09:24;39.50;;;13.00;;
76729;SDS011;65653;53.106;18.046;2022-12-07T15:11:51;23.00;;;7.40;;
76729;SDS011;65653;53.106;18.046;2022-12-07T15:14:18;45.00;;;16.50;;
76729;SDS011;65653;53.106;18.046;2022-12-07T15:16:44;31.70;;;9.50;;
76729;SDS011;65653;53.106;18.046;2022-12-07T15:19:21;44.10;;;12.70;;
76729;SDS011;65653;53.106;18.046;2022-12-07T15:21:51;24.20;;;8.60;;
76729;SDS011;65653;53.106;18.046;2022-12-07T15:24:19;42.10;;;14.10;;
76729;SDS011;65653;53.106;18.046;2022-12-07T15:26:46;51.10;;;15.50;;
76729;SDS011;65653;53.106;18.046;2022-12-07T15:29:13;44.60;;;11.90;;
76729;SDS011;65653;53.106;18.046;2022-12-07T15:31:41;54.50;;;15.90;;
76729;SDS011;65653;53.106;18.046;2022-12-07T15:34:07;55.60;;;16.70;;
76729;SDS011;65653;53.106;18.046;2022-12-07T15:36:34;47.90;;;16.10;;
76729;SDS011;65653;53.106;18.046;2022-12-07T15:39:02;55.40;;;16.60;;
76729;SDS011;65653;53.106;18.046;2022-12-07T15:41:29;57.60;;;17.50;;
76729;SDS011;65653;53.106;18.046;2022-12-07T15:43:55;53.70;;;13.50;;
76729;SDS011;65653;53.106;18.046;2022-12-07T15:46:41;63.80;;;22.50;;
76729;SDS011;65653;53.106;18.046;2022-12-07T15:49:15;72.30;;;23.10;;
76729;SDS011;65653;53.106;18.046;2022-12-07T15:51:47;61.90;;;18.00;;
76729;SDS011;65653;53.106;18.046;2022-12-07T15:54:21;73.30;;;21.90;;
76729;SDS011;65653;53.106;18.046;2022-12-07T15:56:50;78.50;;;25.50;;
76729;SDS011;65653;53.106;18.046;2022-12-07T15:59:17;82.30;;;22.80;;
76729;SDS011;65653;53.106;18.046;2022-12-07T16:01:44;85.30;;;27.00;;
76729;SDS011;65653;53.106;18.046;2022-12-07T16:04:10;88.80;;;20.40;;
76729;SDS011;65653;53.106;18.046;2022-12-07T16:06:37;66.10;;;16.60;;
76729;SDS011;65653;53.106;18.046;2022-12-07T16:09:05;62.30;;;20.80;;
76729;SDS011;65653;53.106;18.046;2022-12-07T16:11:32;66.50;;;16.00;;
76729;SDS011;65653;53.106;18.046;2022-12-07T16:13:59;54.30;;;18.90;;
76729;SDS011;65653;53.106;18.046;2022-12-07T16:16:26;72.30;;;18.80;;
76729;SDS011;65653;53.106;18.046;2022-12-07T16:18:53;75.50;;;18.40;;
76729;SDS011;65653;53.106;18.046;2022-12-07T16:21:20;59.70;;;16.50;;
76729;SDS011;65653;53.106;18.046;2022-12-07T16:23:47;75.90;;;18.00;;
76729;SDS011;65653;53.106;18.046;2022-12-07T16:26:15;58.50;;;14.80;;
76729;SDS011;65653;53.106;18.046;2022-12-07T16:28:43;84.30;;;17.70;;